sensor_id;sensor_type;location;lat;lon;timestamp;P1;durP1;ratioP1;P2;durP2;ratioP2
17648;SDS011;8943;51.110;-4.158;2022-09-03T00:01:28;22.13;;;19.73;;
17648;SDS011;8943;51.110;-4.158;2022-09-03T00:04:07;19.97;;;17.87;;
17648;SDS011;8943;51.110;-4.158;2022-09-03T00:06:54;20.97;;;18.87;;
17648;SDS011;8943;51.110;-4.158;2022-09-03T00:09:28;22.73;;;17.97;;
17648;SDS011;8943;51.110;-4.158;2022-09-03T00:12:01;21.37;;;19.20;;
17648;SDS011;8943;51.110;-4.158;2022-09-03T00:14:37;21.73;;;19.53;;
17648;SDS011;8943;51.110;-4.158;2022-09-03T00:17:10;22.00;;;19.63;;
17648;SDS011;8943;51.110;-4.158;2022-09-03T00:19:43;21.90;;;19.60;;
17648;SDS011;8943;51.110;-4.158;2022-09-03T00:22:22;24.57;;;19.97;;
17648;SDS011;8943;51.110;-4.158;2022-09-03T00:24:55;23.97;;;20.73;;
17648;SDS011;8943;51.110;-4.158;2022-09-03T00:27:31;21.83;;;19.53;;
17648;SDS011;8943;51.110;-4.158;2022-09-03T00:30:05;23.93;;;18.97;;
17648;SDS011;8943;51.110;-4.158;2022-09-03T00:32:43;23.13;;;20.77;;
17648;SDS011;8943;51.110;-4.158;2022-09-03T00:35:17;24.73;;;19.83;;
17648;SDS011;8943;51.110;-4.158;2022-09-03T00:37:51;21.60;;;19.13;;
17648;SDS011;8943;51.110;-4.158;2022-09-03T00:40:27;29.07;;;20.83;;
17648;SDS011;8943;51.110;-4.158;2022-09-03T00:43:05;23.00;;;19.67;;
17648;SDS011;8943;51.110;-4.158;2022-09-03T00:45:43;25.93;;;19.77;;
17648;SDS011;8943;51.110;-4.158;2022-09-03T00:48:22;21.17;;;18.87;;
17648;SDS011;8943;51.110;-4.158;2022-09-03T00:51:01;23.53;;;20.53;;
17648;SDS011;8943;51.110;-4.158;2022-09-03T00:53:42;21.77;;;19.40;;
17648;SDS011;8943;51.110;-4.158;2022-09-03T00:56:19;21.50;;;18.40;;
17648;SDS011;8943;51.110;-4.158;2022-09-03T00:59:00;21.47;;;19.07;;
17648;SDS011;8943;51.110;-4.158;2022-09-03T01:01:39;23.40;;;19.20;;
17648;SDS011;8943;51.110;-4.158;2022-09-03T01:04:21;19.87;;;17.80;;
17648;SDS011;8943;51.110;-4.158;2022-09-03T01:07:00;21.00;;;18.40;;
17648;SDS011;8943;51.110;-4.158;2022-09-03T01:09:41;20.70;;;18.50;;
17648;SDS011;8943;51.110;-4.158;2022-09-03T01:12:18;18.53;;;16.63;;
17648;SDS011;8943;51.110;-4.158;2022-09-03T01:15:00;27.43;;;19.27;;
17648;SDS011;8943;51.110;-4.158;2022-09-03T01:17:38;19.37;;;17.33;;
17648;SDS011;8943;51.110;-4.158;2022-09-03T01:20:35;22.17;;;16.67;;
17648;SDS011;8943;51.110;-4.158;2022-09-03T01:23:22;18.27;;;16.43;;
17648;SDS011;8943;51.110;-4.158;2022-09-03T01:26:19;16.67;;;14.87;;
17648;SDS011;8943;51.110;-4.158;2022-09-03T01:29:03;21.00;;;15.33;;
17648;SDS011;8943;51.110;-4.158;2022-09-03T01:31:44;14.80;;;13.27;;
17648;SDS011;8943;51.110;-4.158;2022-09-03T01:34:21;14.37;;;12.33;;
17648;SDS011;8943;51.110;-4.158;2022-09-03T01:37:03;13.17;;;10.60;;
17648;SDS011;8943;51.110;-4.158;2022-09-03T01:39:43;9.83;;;8.93;;
17648;SDS011;8943;51.110;-4.158;2022-09-03T01:42:22;7.17;;;5.83;;
17648;SDS011;8943;51.110;-4.158;2022-09-03T01:45:19;12.10;;;5.00;;
17648;SDS011;8943;51.110;-4.158;2022-09-03T01:48:01;8.07;;;5.17;;
17648;SDS011;8943;51.110;-4.158;2022-09-03T01:50:43;6.50;;;5.10;;
17648;SDS011;8943;51.110;-4.158;2022-09-03T01:53:24;13.60;;;5.10;;
17648;SDS011;8943;51.110;-4.158;2022-09-03T01:56:10;6.73;;;5.00;;
17648;SDS011;8943;51.110;-4.158;2022-09-03T01:58:47;6.60;;;5.00;;
17648;SDS011;8943;51.110;-4.158;2022-09-03T02:01:28;7.23;;;5.80;;
17648;SDS011;8943;51.110;-4.158;2022-09-03T02:04:00;6.80;;;5.20;;
17648;SDS011;8943;51.110;-4.158;2022-09-03T02:06:29;10.00;;;6.10;;
17648;SDS011;8943;51.110;-4.158;2022-09-03T02:08:58;9.37;;;6.03;;
17648;SDS011;8943;51.110;-4.158;2022-09-03T02:11:26;10.80;;;6.47;;
17648;SDS011;8943;51.110;-4.158;2022-09-03T02:13:55;9.23;;;6.13;;
17648;SDS011;8943;51.110;-4.158;2022-09-03T02:16:26;7.80;;;6.43;;
17648;SDS011;8943;51.110;-4.158;2022-09-03T02:18:59;13.70;;;7.30;;
17648;SDS011;8943;51.110;-4.158;2022-09-03T02:21:32;12.00;;;7.97;;
17648;SDS011;8943;51.110;-4.158;2022-09-03T02:24:03;12.30;;;8.00;;
17648;SDS011;8943;51.110;-4.158;2022-09-03T02:26:34;13.07;;;8.60;;
17648;SDS011;8943;51.110;-4.158;2022-09-03T02:29:03;11.67;;;8.67;;
17648;SDS011;8943;51.110;-4.158;2022-09-03T02:31:34;14.40;;;9.30;;
17648;SDS011;8943;51.110;-4.158;2022-09-03T02:34:03;12.97;;;8.70;;
17648;SDS011;8943;51.110;-4.158;2022-09-03T02:36:34;13.07;;;8.80;;
17648;SDS011;8943;51.110;-4.158;2022-09-03T02:39:05;11.07;;;7.13;;
17648;SDS011;8943;51.110;-4.158;2022-09-03T02:41:34;12.50;;;8.90;;
17648;SDS011;8943;51.110;-4.158;2022-09-03T02:44:03;11.80;;;8.30;;
17648;SDS011;8943;51.110;-4.158;2022-09-03T02:46:42;14.53;;;8.73;;
17648;SDS011;8943;51.110;-4.158;2022-09-03T02:49:13;10.43;;;7.97;;
17648;SDS011;8943;51.110;-4.158;2022-09-03T02:51:42;12.63;;;7.80;;
17648;SDS011;8943;51.110;-4.158;2022-09-03T02:54:11;10.53;;;7.47;;
17648;SDS011;8943;51.110;-4.158;2022-09-03T02:56:46;11.80;;;7.90;;
17648;SDS011;8943;51.110;-4.158;2022-09-03T02:59:15;9.40;;;8.13;;
17648;SDS011;8943;51.110;-4.158;2022-09-03T03:01:45;12.93;;;8.17;;
17648;SDS011;8943;51.110;-4.158;2022-09-03T03:04:13;11.57;;;7.50;;
17648;SDS011;8943;51.110;-4.158;2022-09-03T03:06:42;11.30;;;8.47;;
17648;SDS011;8943;51.110;-4.158;2022-09-03T03:09:13;12.47;;;8.23;;
17648;SDS011;8943;51.110;-4.158;2022-09-03T03:11:41;13.80;;;7.83;;
17648;SDS011;8943;51.110;-4.158;2022-09-03T03:14:10;10.20;;;7.70;;
17648;SDS011;8943;51.110;-4.158;2022-09-03T03:16:39;11.03;;;8.30;;
17648;SDS011;8943;51.110;-4.158;2022-09-03T03:19:09;10.43;;;7.70;;
17648;SDS011;8943;51.110;-4.158;2022-09-03T03:21:38;9.83;;;7.77;;
17648;SDS011;8943;51.110;-4.158;2022-09-03T03:24:06;13.37;;;7.57;;
17648;SDS011;8943;51.110;-4.158;2022-09-03T03:26:35;11.40;;;7.70;;
17648;SDS011;8943;51.110;-4.158;2022-09-03T03:29:03;9.23;;;7.77;;
17648;SDS011;8943;51.110;-4.158;2022-09-03T03:31:32;9.20;;;7.43;;
17648;SDS011;8943;51.110;-4.158;2022-09-03T03:34:01;15.20;;;7.80;;
17648;SDS011;8943;51.110;-4.158;2022-09-03T03:36:31;13.60;;;10.10;;
17648;SDS011;8943;51.110;-4.158;2022-09-03T03:39:00;10.63;;;9.20;;
17648;SDS011;8943;51.110;-4.158;2022-09-03T03:41:30;12.63;;;9.10;;
17648;SDS011;8943;51.110;-4.158;2022-09-03T03:44:00;11.97;;;9.17;;
17648;SDS011;8943;51.110;-4.158;2022-09-03T03:46:31;14.83;;;9.67;;
17648;SDS011;8943;51.110;-4.158;2022-09-03T03:49:01;10.27;;;9.17;;
17648;SDS011;8943;51.110;-4.158;2022-09-03T03:51:33;14.00;;;9.40;;
17648;SDS011;8943;51.110;-4.158;2022-09-03T03:54:03;12.13;;;9.10;;
17648;SDS011;8943;51.110;-4.158;2022-09-03T03:56:33;10.23;;;9.07;;
17648;SDS011;8943;51.110;-4.158;2022-09-03T03:59:02;13.13;;;9.23;;
17648;SDS011;8943;51.110;-4.158;2022-09-03T04:01:31;13.73;;;9.57;;
17648;SDS011;8943;51.110;-4.158;2022-09-03T04:04:01;11.00;;;9.60;;
17648;SDS011;8943;51.110;-4.158;2022-09-03T04:06:31;10.10;;;8.33;;
17648;SDS011;8943;51.110;-4.158;2022-09-03T04:09:01;12.43;;;9.80;;
17648;SDS011;8943;51.110;-4.158;2022-09-03T04:11:29;13.63;;;9.10;;
17648;SDS011;8943;51.110;-4.158;2022-09-03T04:13:58;11.90;;;9.70;;
17648;SDS011;8943;51.110;-4.158;2022-09-03T04:16:26;12.33;;;9.13;;
17648;SDS011;8943;51.110;-4.158;2022-09-03T04:18:56;12.33;;;9.37;;
17648;SDS011;8943;51.110;-4.158;2022-09-03T04:21:25;13.00;;;10.20;;
17648;SDS011;8943;51.110;-4.158;2022-09-03T04:23:54;12.37;;;9.43;;
17648;SDS011;8943;51.110;-4.158;2022-09-03T04:26:25;10.77;;;9.67;;
17648;SDS011;8943;51.110;-4.158;2022-09-03T04:28:57;11.33;;;9.07;;
17648;SDS011;8943;51.110;-4.158;2022-09-03T04:31:26;12.03;;;9.70;;
17648;SDS011;8943;51.110;-4.158;2022-09-03T04:33:57;12.93;;;9.73;;
17648;SDS011;8943;51.110;-4.158;2022-09-03T04:36:26;12.43;;;9.40;;
17648;SDS011;8943;51.110;-4.158;2022-09-03T04:38:57;15.50;;;9.60;;
17648;SDS011;8943;51.110;-4.158;2022-09-03T04:41:29;12.83;;;10.13;;
17648;SDS011;8943;51.110;-4.158;2022-09-03T04:43:58;14.73;;;10.97;;
17648;SDS011;8943;51.110;-4.158;2022-09-03T04:46:27;12.80;;;10.33;;
17648;SDS011;8943;51.110;-4.158;2022-09-03T04:48:59;14.07;;;11.37;;
17648;SDS011;8943;51.110;-4.158;2022-09-03T04:51:29;12.40;;;11.10;;
17648;SDS011;8943;51.110;-4.158;2022-09-03T04:53:59;13.63;;;11.57;;
17648;SDS011;8943;51.110;-4.158;2022-09-03T04:56:31;14.97;;;12.27;;
17648;SDS011;8943;51.110;-4.158;2022-09-03T04:59:01;13.50;;;11.67;;
17648;SDS011;8943;51.110;-4.158;2022-09-03T05:01:32;13.70;;;12.30;;
17648;SDS011;8943;51.110;-4.158;2022-09-03T05:04:03;16.33;;;12.90;;
17648;SDS011;8943;51.110;-4.158;2022-09-03T05:06:32;14.37;;;12.47;;
17648;SDS011;8943;51.110;-4.158;2022-09-03T05:09:02;16.47;;;12.43;;
17648;SDS011;8943;51.110;-4.158;2022-09-03T05:11:34;16.27;;;13.43;;
17648;SDS011;8943;51.110;-4.158;2022-09-03T05:14:04;16.07;;;14.27;;
17648;SDS011;8943;51.110;-4.158;2022-09-03T05:16:37;15.57;;;13.47;;
17648;SDS011;8943;51.110;-4.158;2022-09-03T05:19:05;15.90;;;13.87;;
17648;SDS011;8943;51.110;-4.158;2022-09-03T05:21:38;18.23;;;14.67;;
17648;SDS011;8943;51.110;-4.158;2022-09-03T05:24:08;17.83;;;14.13;;
17648;SDS011;8943;51.110;-4.158;2022-09-03T05:26:39;17.00;;;14.40;;
17648;SDS011;8943;51.110;-4.158;2022-09-03T05:29:07;17.20;;;14.83;;
17648;SDS011;8943;51.110;-4.158;2022-09-03T05:31:36;16.87;;;14.50;;
17648;SDS011;8943;51.110;-4.158;2022-09-03T05:34:06;18.03;;;14.73;;
17648;SDS011;8943;51.110;-4.158;2022-09-03T05:36:41;16.77;;;14.57;;
17648;SDS011;8943;51.110;-4.158;2022-09-03T05:39:12;22.17;;;14.90;;
17648;SDS011;8943;51.110;-4.158;2022-09-03T05:41:42;18.50;;;15.13;;
17648;SDS011;8943;51.110;-4.158;2022-09-03T05:44:10;17.80;;;15.17;;
17648;SDS011;8943;51.110;-4.158;2022-09-03T05:46:40;17.50;;;14.43;;
17648;SDS011;8943;51.110;-4.158;2022-09-03T05:49:08;17.17;;;15.37;;
17648;SDS011;8943;51.110;-4.158;2022-09-03T05:51:37;16.93;;;14.53;;
17648;SDS011;8943;51.110;-4.158;2022-09-03T05:54:06;17.67;;;15.60;;
17648;SDS011;8943;51.110;-4.158;2022-09-03T05:56:35;19.60;;;15.10;;
17648;SDS011;8943;51.110;-4.158;2022-09-03T05:59:08;17.70;;;15.80;;
17648;SDS011;8943;51.110;-4.158;2022-09-03T06:01:39;20.00;;;15.20;;
17648;SDS011;8943;51.110;-4.158;2022-09-03T06:04:17;18.13;;;16.20;;
17648;SDS011;8943;51.110;-4.158;2022-09-03T06:06:46;18.70;;;15.53;;
17648;SDS011;8943;51.110;-4.158;2022-09-03T06:09:16;17.60;;;15.40;;
17648;SDS011;8943;51.110;-4.158;2022-09-03T06:11:46;18.70;;;15.43;;
17648;SDS011;8943;51.110;-4.158;2022-09-03T06:14:17;19.87;;;15.67;;
17648;SDS011;8943;51.110;-4.158;2022-09-03T06:16:46;16.73;;;14.97;;
17648;SDS011;8943;51.110;-4.158;2022-09-03T06:19:16;18.03;;;15.30;;
17648;SDS011;8943;51.110;-4.158;2022-09-03T06:21:46;18.97;;;16.17;;
17648;SDS011;8943;51.110;-4.158;2022-09-03T06:24:17;18.97;;;15.80;;
17648;SDS011;8943;51.110;-4.158;2022-09-03T06:26:53;16.67;;;14.87;;
17648;SDS011;8943;51.110;-4.158;2022-09-03T06:29:24;18.50;;;15.63;;
17648;SDS011;8943;51.110;-4.158;2022-09-03T06:31:57;18.57;;;15.43;;
17648;SDS011;8943;51.110;-4.158;2022-09-03T06:34:42;20.80;;;14.70;;
17648;SDS011;8943;51.110;-4.158;2022-09-03T06:37:10;18.00;;;15.23;;
17648;SDS011;8943;51.110;-4.158;2022-09-03T06:39:39;20.23;;;16.53;;
17648;SDS011;8943;51.110;-4.158;2022-09-03T06:42:07;20.13;;;15.63;;
17648;SDS011;8943;51.110;-4.158;2022-09-03T06:44:39;17.53;;;14.67;;
17648;SDS011;8943;51.110;-4.158;2022-09-03T06:47:11;16.70;;;13.93;;
17648;SDS011;8943;51.110;-4.158;2022-09-03T06:49:41;31.07;;;17.30;;
17648;SDS011;8943;51.110;-4.158;2022-09-03T06:52:10;19.70;;;14.30;;
17648;SDS011;8943;51.110;-4.158;2022-09-03T06:54:38;17.47;;;13.63;;
17648;SDS011;8943;51.110;-4.158;2022-09-03T06:57:06;17.53;;;12.97;;
17648;SDS011;8943;51.110;-4.158;2022-09-03T06:59:35;16.07;;;12.87;;
17648;SDS011;8943;51.110;-4.158;2022-09-03T07:02:09;18.63;;;13.63;;
17648;SDS011;8943;51.110;-4.158;2022-09-03T07:04:38;21.20;;;16.57;;
17648;SDS011;8943;51.110;-4.158;2022-09-03T07:07:11;16.40;;;13.13;;
17648;SDS011;8943;51.110;-4.158;2022-09-03T07:09:42;14.93;;;12.57;;
17648;SDS011;8943;51.110;-4.158;2022-09-03T07:12:16;19.00;;;14.20;;
17648;SDS011;8943;51.110;-4.158;2022-09-03T07:14:45;19.17;;;12.43;;
17648;SDS011;8943;51.110;-4.158;2022-09-03T07:17:18;13.97;;;11.90;;
17648;SDS011;8943;51.110;-4.158;2022-09-03T07:19:46;15.87;;;12.10;;
17648;SDS011;8943;51.110;-4.158;2022-09-03T07:22:16;12.63;;;11.33;;
17648;SDS011;8943;51.110;-4.158;2022-09-03T07:24:45;16.70;;;12.07;;
17648;SDS011;8943;51.110;-4.158;2022-09-03T07:27:14;16.37;;;11.80;;
17648;SDS011;8943;51.110;-4.158;2022-09-03T07:29:42;13.50;;;11.70;;
17648;SDS011;8943;51.110;-4.158;2022-09-03T07:32:11;15.17;;;12.50;;
17648;SDS011;8943;51.110;-4.158;2022-09-03T07:38:38;14.30;;;12.10;;
17648;SDS011;8943;51.110;-4.158;2022-09-03T07:41:08;13.40;;;10.83;;
17648;SDS011;8943;51.110;-4.158;2022-09-03T07:43:43;12.77;;;11.27;;
17648;SDS011;8943;51.110;-4.158;2022-09-03T07:46:13;11.03;;;9.40;;
17648;SDS011;8943;51.110;-4.158;2022-09-03T07:48:49;13.60;;;11.33;;
17648;SDS011;8943;51.110;-4.158;2022-09-03T07:51:18;11.43;;;10.20;;
17648;SDS011;8943;51.110;-4.158;2022-09-03T07:53:51;12.60;;;9.30;;
17648;SDS011;8943;51.110;-4.158;2022-09-03T07:56:20;16.27;;;9.97;;
17648;SDS011;8943;51.110;-4.158;2022-09-03T07:58:49;15.57;;;10.47;;
17648;SDS011;8943;51.110;-4.158;2022-09-03T08:01:18;13.83;;;10.27;;
17648;SDS011;8943;51.110;-4.158;2022-09-03T08:03:50;14.87;;;13.03;;
17648;SDS011;8943;51.110;-4.158;2022-09-03T08:06:20;13.20;;;9.67;;
17648;SDS011;8943;51.110;-4.158;2022-09-03T08:08:54;12.53;;;9.57;;
17648;SDS011;8943;51.110;-4.158;2022-09-03T08:11:31;10.17;;;9.10;;
17648;SDS011;8943;51.110;-4.158;2022-09-03T08:14:01;12.47;;;9.67;;
17648;SDS011;8943;51.110;-4.158;2022-09-03T08:16:33;13.83;;;10.13;;
17648;SDS011;8943;51.110;-4.158;2022-09-03T08:19:02;11.80;;;8.63;;
17648;SDS011;8943;51.110;-4.158;2022-09-03T08:21:32;11.00;;;8.37;;
17648;SDS011;8943;51.110;-4.158;2022-09-03T08:24:02;10.53;;;8.27;;
17648;SDS011;8943;51.110;-4.158;2022-09-03T08:26:33;9.90;;;7.90;;
17648;SDS011;8943;51.110;-4.158;2022-09-03T08:29:02;10.60;;;7.53;;
17648;SDS011;8943;51.110;-4.158;2022-09-03T08:31:32;8.60;;;6.67;;
17648;SDS011;8943;51.110;-4.158;2022-09-03T08:34:02;9.43;;;7.20;;
17648;SDS011;8943;51.110;-4.158;2022-09-03T08:36:33;8.50;;;6.20;;
17648;SDS011;8943;51.110;-4.158;2022-09-03T08:39:05;8.17;;;6.27;;
17648;SDS011;8943;51.110;-4.158;2022-09-03T08:41:39;7.27;;;5.73;;
17648;SDS011;8943;51.110;-4.158;2022-09-03T08:44:29;9.20;;;6.50;;
17648;SDS011;8943;51.110;-4.158;2022-09-03T08:47:06;8.57;;;5.67;;
17648;SDS011;8943;51.110;-4.158;2022-09-03T08:49:40;8.87;;;6.40;;
17648;SDS011;8943;51.110;-4.158;2022-09-03T08:52:17;8.50;;;6.03;;
17648;SDS011;8943;51.110;-4.158;2022-09-03T08:54:54;10.80;;;6.10;;
17648;SDS011;8943;51.110;-4.158;2022-09-03T08:57:30;9.53;;;6.07;;
17648;SDS011;8943;51.110;-4.158;2022-09-03T09:00:04;9.50;;;6.50;;
17648;SDS011;8943;51.110;-4.158;2022-09-03T09:02:35;6.47;;;5.27;;
17648;SDS011;8943;51.110;-4.158;2022-09-03T09:05:11;8.03;;;6.13;;
17648;SDS011;8943;51.110;-4.158;2022-09-03T09:07:46;10.83;;;6.40;;
17648;SDS011;8943;51.110;-4.158;2022-09-03T09:10:22;7.53;;;5.90;;
17648;SDS011;8943;51.110;-4.158;2022-09-03T09:13:04;7.37;;;5.83;;
17648;SDS011;8943;51.110;-4.158;2022-09-03T09:15:43;9.37;;;6.53;;
17648;SDS011;8943;51.110;-4.158;2022-09-03T09:18:18;6.97;;;6.30;;
17648;SDS011;8943;51.110;-4.158;2022-09-03T09:20:55;7.63;;;5.73;;
17648;SDS011;8943;51.110;-4.158;2022-09-03T09:23:34;9.07;;;5.90;;
17648;SDS011;8943;51.110;-4.158;2022-09-03T09:26:09;8.73;;;6.40;;
17648;SDS011;8943;51.110;-4.158;2022-09-03T09:28:41;7.90;;;5.70;;
17648;SDS011;8943;51.110;-4.158;2022-09-03T09:31:16;7.87;;;5.37;;
17648;SDS011;8943;51.110;-4.158;2022-09-03T09:33:45;8.07;;;5.60;;
17648;SDS011;8943;51.110;-4.158;2022-09-03T09:36:14;8.13;;;5.80;;
17648;SDS011;8943;51.110;-4.158;2022-09-03T09:38:45;7.10;;;5.33;;
17648;SDS011;8943;51.110;-4.158;2022-09-03T09:41:16;8.40;;;5.27;;
17648;SDS011;8943;51.110;-4.158;2022-09-03T09:43:58;8.87;;;5.57;;
17648;SDS011;8943;51.110;-4.158;2022-09-03T09:46:29;7.77;;;5.60;;
17648;SDS011;8943;51.110;-4.158;2022-09-03T09:49:06;7.23;;;5.70;;
17648;SDS011;8943;51.110;-4.158;2022-09-03T09:51:45;7.70;;;5.67;;
17648;SDS011;8943;51.110;-4.158;2022-09-03T09:54:14;9.90;;;5.23;;
17648;SDS011;8943;51.110;-4.158;2022-09-03T09:56:57;11.77;;;6.50;;
17648;SDS011;8943;51.110;-4.158;2022-09-03T09:59:26;6.70;;;5.27;;
17648;SDS011;8943;51.110;-4.158;2022-09-03T10:02:01;10.57;;;6.80;;
17648;SDS011;8943;51.110;-4.158;2022-09-03T10:04:34;9.30;;;6.07;;
17648;SDS011;8943;51.110;-4.158;2022-09-03T10:07:04;7.57;;;6.40;;
17648;SDS011;8943;51.110;-4.158;2022-09-03T10:09:56;9.17;;;6.67;;
17648;SDS011;8943;51.110;-4.158;2022-09-03T10:12:29;7.03;;;5.77;;
17648;SDS011;8943;51.110;-4.158;2022-09-03T10:15:08;6.83;;;5.63;;
17648;SDS011;8943;51.110;-4.158;2022-09-03T10:17:50;7.50;;;4.93;;
17648;SDS011;8943;51.110;-4.158;2022-09-03T10:20:23;7.87;;;4.13;;
17648;SDS011;8943;51.110;-4.158;2022-09-03T10:23:00;3.97;;;3.57;;
17648;SDS011;8943;51.110;-4.158;2022-09-03T10:25:36;7.30;;;4.30;;
17648;SDS011;8943;51.110;-4.158;2022-09-03T10:28:09;5.87;;;3.77;;
17648;SDS011;8943;51.110;-4.158;2022-09-03T10:30:44;5.20;;;3.60;;
17648;SDS011;8943;51.110;-4.158;2022-09-03T10:33:25;4.77;;;3.37;;
17648;SDS011;8943;51.110;-4.158;2022-09-03T10:36:03;4.73;;;3.50;;
17648;SDS011;8943;51.110;-4.158;2022-09-03T10:38:40;5.83;;;3.43;;
17648;SDS011;8943;51.110;-4.158;2022-09-03T10:41:14;5.30;;;3.90;;
17648;SDS011;8943;51.110;-4.158;2022-09-03T10:44:13;7.70;;;3.73;;
17648;SDS011;8943;51.110;-4.158;2022-09-03T10:46:56;6.97;;;3.30;;
17648;SDS011;8943;51.110;-4.158;2022-09-03T10:49:33;5.43;;;3.63;;
17648;SDS011;8943;51.110;-4.158;2022-09-03T10:52:18;5.97;;;3.10;;
17648;SDS011;8943;51.110;-4.158;2022-09-03T10:54:59;5.13;;;3.10;;
17648;SDS011;8943;51.110;-4.158;2022-09-03T10:57:40;3.13;;;2.40;;
17648;SDS011;8943;51.110;-4.158;2022-09-03T11:00:15;5.80;;;2.13;;
17648;SDS011;8943;51.110;-4.158;2022-09-03T11:02:56;3.10;;;2.27;;
17648;SDS011;8943;51.110;-4.158;2022-09-03T11:05:38;5.07;;;2.80;;
17648;SDS011;8943;51.110;-4.158;2022-09-03T11:08:11;4.90;;;2.47;;
17648;SDS011;8943;51.110;-4.158;2022-09-03T11:10:44;5.90;;;2.63;;
17648;SDS011;8943;51.110;-4.158;2022-09-03T11:13:17;6.77;;;2.20;;
17648;SDS011;8943;51.110;-4.158;2022-09-03T11:15:52;4.10;;;2.27;;
17648;SDS011;8943;51.110;-4.158;2022-09-03T11:18:26;4.97;;;2.07;;
17648;SDS011;8943;51.110;-4.158;2022-09-03T11:21:00;3.87;;;1.80;;
17648;SDS011;8943;51.110;-4.158;2022-09-03T11:23:38;4.10;;;1.80;;
17648;SDS011;8943;51.110;-4.158;2022-09-03T11:26:10;6.27;;;2.20;;
17648;SDS011;8943;51.110;-4.158;2022-09-03T11:28:41;3.43;;;2.00;;
17648;SDS011;8943;51.110;-4.158;2022-09-03T11:31:19;7.20;;;1.97;;
17648;SDS011;8943;51.110;-4.158;2022-09-03T11:33:57;4.37;;;2.20;;
17648;SDS011;8943;51.110;-4.158;2022-09-03T11:36:34;4.30;;;2.13;;
17648;SDS011;8943;51.110;-4.158;2022-09-03T11:39:17;8.60;;;2.40;;
17648;SDS011;8943;51.110;-4.158;2022-09-03T11:41:57;5.03;;;2.10;;
17648;SDS011;8943;51.110;-4.158;2022-09-03T11:44:34;5.63;;;2.20;;
17648;SDS011;8943;51.110;-4.158;2022-09-03T11:47:21;4.87;;;2.00;;
17648;SDS011;8943;51.110;-4.158;2022-09-03T11:49:51;4.10;;;1.83;;
17648;SDS011;8943;51.110;-4.158;2022-09-03T11:52:31;4.77;;;2.17;;
17648;SDS011;8943;51.110;-4.158;2022-09-03T11:55:06;4.07;;;2.30;;
17648;SDS011;8943;51.110;-4.158;2022-09-03T11:57:38;4.03;;;2.13;;
17648;SDS011;8943;51.110;-4.158;2022-09-03T12:00:10;5.00;;;2.17;;
17648;SDS011;8943;51.110;-4.158;2022-09-03T12:02:43;7.07;;;2.40;;
17648;SDS011;8943;51.110;-4.158;2022-09-03T12:05:25;4.90;;;2.10;;
17648;SDS011;8943;51.110;-4.158;2022-09-03T12:08:08;4.43;;;2.03;;
17648;SDS011;8943;51.110;-4.158;2022-09-03T12:10:50;3.47;;;1.80;;
17648;SDS011;8943;51.110;-4.158;2022-09-03T12:13:31;3.93;;;1.93;;
17648;SDS011;8943;51.110;-4.158;2022-09-03T12:16:24;5.40;;;1.60;;
17648;SDS011;8943;51.110;-4.158;2022-09-03T12:19:02;3.03;;;2.00;;
17648;SDS011;8943;51.110;-4.158;2022-09-03T12:21:38;3.23;;;1.73;;
17648;SDS011;8943;51.110;-4.158;2022-09-03T12:24:09;3.40;;;1.50;;
17648;SDS011;8943;51.110;-4.158;2022-09-03T12:26:40;4.03;;;2.00;;
17648;SDS011;8943;51.110;-4.158;2022-09-03T12:29:19;3.70;;;1.70;;
17648;SDS011;8943;51.110;-4.158;2022-09-03T12:31:53;5.17;;;1.90;;
17648;SDS011;8943;51.110;-4.158;2022-09-03T12:34:24;4.77;;;1.83;;
17648;SDS011;8943;51.110;-4.158;2022-09-03T12:36:54;3.07;;;1.73;;
17648;SDS011;8943;51.110;-4.158;2022-09-03T12:39:23;3.27;;;1.20;;
17648;SDS011;8943;51.110;-4.158;2022-09-03T12:42:15;2.97;;;1.40;;
17648;SDS011;8943;51.110;-4.158;2022-09-03T12:44:48;3.37;;;1.40;;
17648;SDS011;8943;51.110;-4.158;2022-09-03T12:47:17;2.93;;;1.47;;
17648;SDS011;8943;51.110;-4.158;2022-09-03T12:50:06;3.33;;;1.10;;
17648;SDS011;8943;51.110;-4.158;2022-09-03T12:52:40;3.50;;;1.63;;
17648;SDS011;8943;51.110;-4.158;2022-09-03T12:55:17;6.47;;;1.50;;
17648;SDS011;8943;51.110;-4.158;2022-09-03T12:57:54;3.33;;;1.50;;
17648;SDS011;8943;51.110;-4.158;2022-09-03T13:00:31;1.80;;;1.33;;
17648;SDS011;8943;51.110;-4.158;2022-09-03T13:03:02;2.03;;;1.13;;
17648;SDS011;8943;51.110;-4.158;2022-09-03T13:08:36;4.03;;;1.60;;
17648;SDS011;8943;51.110;-4.158;2022-09-03T13:11:35;2.73;;;1.30;;
17648;SDS011;8943;51.110;-4.158;2022-09-03T13:14:07;3.07;;;1.70;;
17648;SDS011;8943;51.110;-4.158;2022-09-03T13:20:12;4.30;;;1.90;;
17648;SDS011;8943;51.110;-4.158;2022-09-03T13:23:05;3.17;;;1.43;;
17648;SDS011;8943;51.110;-4.158;2022-09-03T13:25:53;5.83;;;1.50;;
17648;SDS011;8943;51.110;-4.158;2022-09-03T13:28:37;3.40;;;1.20;;
17648;SDS011;8943;51.110;-4.158;2022-09-03T13:31:30;2.90;;;1.30;;
17648;SDS011;8943;51.110;-4.158;2022-09-03T13:34:13;3.37;;;1.63;;
17648;SDS011;8943;51.110;-4.158;2022-09-03T13:37:04;2.63;;;1.40;;
17648;SDS011;8943;51.110;-4.158;2022-09-03T13:40:11;5.03;;;1.53;;
17648;SDS011;8943;51.110;-4.158;2022-09-03T13:42:56;3.60;;;1.30;;
17648;SDS011;8943;51.110;-4.158;2022-09-03T13:45:38;3.60;;;1.63;;
17648;SDS011;8943;51.110;-4.158;2022-09-03T13:48:16;2.47;;;1.60;;
17648;SDS011;8943;51.110;-4.158;2022-09-03T13:51:25;6.40;;;1.73;;
17648;SDS011;8943;51.110;-4.158;2022-09-03T13:54:35;3.63;;;1.90;;
17648;SDS011;8943;51.110;-4.158;2022-09-03T13:57:29;4.70;;;1.60;;
17648;SDS011;8943;51.110;-4.158;2022-09-03T14:00:04;3.73;;;1.80;;
17648;SDS011;8943;51.110;-4.158;2022-09-03T14:02:45;4.37;;;1.43;;
17648;SDS011;8943;51.110;-4.158;2022-09-03T14:05:23;4.73;;;1.40;;
17648;SDS011;8943;51.110;-4.158;2022-09-03T14:08:04;1.73;;;1.13;;
17648;SDS011;8943;51.110;-4.158;2022-09-03T14:11:13;3.10;;;1.63;;
17648;SDS011;8943;51.110;-4.158;2022-09-03T14:17:51;2.73;;;1.50;;
17648;SDS011;8943;51.110;-4.158;2022-09-03T14:21:21;3.57;;;1.37;;
17648;SDS011;8943;51.110;-4.158;2022-09-03T14:24:20;5.07;;;1.40;;
17648;SDS011;8943;51.110;-4.158;2022-09-03T14:27:07;2.83;;;1.43;;
17648;SDS011;8943;51.110;-4.158;2022-09-03T14:29:48;5.07;;;1.47;;
17648;SDS011;8943;51.110;-4.158;2022-09-03T14:39:23;2.13;;;1.10;;
17648;SDS011;8943;51.110;-4.158;2022-09-03T14:45:46;3.33;;;1.10;;
17648;SDS011;8943;51.110;-4.158;2022-09-03T14:52:31;1.63;;;1.00;;
17648;SDS011;8943;51.110;-4.158;2022-09-03T14:59:01;2.83;;;1.50;;
17648;SDS011;8943;51.110;-4.158;2022-09-03T15:01:48;2.73;;;1.30;;
17648;SDS011;8943;51.110;-4.158;2022-09-03T15:07:40;1.80;;;0.90;;
17648;SDS011;8943;51.110;-4.158;2022-09-03T15:10:25;1.93;;;1.00;;
17648;SDS011;8943;51.110;-4.158;2022-09-03T15:13:07;3.60;;;1.03;;
17648;SDS011;8943;51.110;-4.158;2022-09-03T15:15:48;1.57;;;1.00;;
17648;SDS011;8943;51.110;-4.158;2022-09-03T15:18:40;2.23;;;1.10;;
17648;SDS011;8943;51.110;-4.158;2022-09-03T15:21:23;2.20;;;1.00;;
17648;SDS011;8943;51.110;-4.158;2022-09-03T15:24:17;1.97;;;1.10;;
17648;SDS011;8943;51.110;-4.158;2022-09-03T15:26:58;2.93;;;1.10;;
17648;SDS011;8943;51.110;-4.158;2022-09-03T15:29:51;4.20;;;1.20;;
17648;SDS011;8943;51.110;-4.158;2022-09-03T15:32:36;2.97;;;1.23;;
17648;SDS011;8943;51.110;-4.158;2022-09-03T15:35:17;3.20;;;1.27;;
17648;SDS011;8943;51.110;-4.158;2022-09-03T15:38:03;3.17;;;1.00;;
17648;SDS011;8943;51.110;-4.158;2022-09-03T15:40:38;2.60;;;1.20;;
17648;SDS011;8943;51.110;-4.158;2022-09-03T15:43:17;5.27;;;1.40;;
17648;SDS011;8943;51.110;-4.158;2022-09-03T15:45:50;3.70;;;1.30;;
17648;SDS011;8943;51.110;-4.158;2022-09-03T15:48:31;2.63;;;1.30;;
17648;SDS011;8943;51.110;-4.158;2022-09-03T15:51:09;3.27;;;1.33;;
17648;SDS011;8943;51.110;-4.158;2022-09-03T15:53:47;5.07;;;1.53;;
17648;SDS011;8943;51.110;-4.158;2022-09-03T15:56:23;3.43;;;1.13;;
17648;SDS011;8943;51.110;-4.158;2022-09-03T15:58:59;4.53;;;1.33;;
17648;SDS011;8943;51.110;-4.158;2022-09-03T16:01:33;3.27;;;1.50;;